LBWNLBBG

Guest
Details From LBWN - Varna
To LBBG - Burgas
Flight Number -
Tags Routegen Generated
Created
Modified
Stats Distance 47 nm / 88 km
Max Altitude 100 ft / 30 m
Waypoints 5
Social Downloads 3
Likes 0
Share VATSIM

Download

Looking for another format? Having issues loading an existing format? Contact us
Advertisement - Login to hide

Notes

Departing runway 9 LBWN. Arriving runway 4 LBBG.

Route

LBWN +43.22_+027.94 +42.95_+027.80 +42.68_+027.67 LBBG

ID Type Via Altitude (ft/m) Position (lat/lon) Dist (leg/tot) Name
O LBWN APT - 100 / 30 43.23064 / 27.84064 - / 0 nm
+43.22_+027.94 DME - 100 / 30 43.22161 / 27.93918 4 / 4 nm
+42.95_+027.80 DME - 100 / 30 42.95278 / 27.80278 17 / 21 nm
+42.68_+027.67 DME - 100 / 30 42.68394 / 27.66638 17 / 38 nm
O LBBG APT - 0 / 0 42.58043 / 27.52888 8 / 47 nm

Altitude Profile

Advertisement - Login to hide

LBWN

Details ICAO LBWN (VAR)
Name Varna Airport
Region Bulgaria
Timezone Europe/Sofia (UTC+2.0)
Stats Elevation 229 ft / 70 m (AMSL)
Location 43.232000° 27.825300°
Runways 1
Magnetic Variation 5.873° E

METAR

LBWN 180430Z 10007KT CAVOK 02/02 Q1020 NOSIG

Decode

TAF

TAF LBWN 172300Z 1800/1824 VRB04KT 8000 SCT010 BECMG 1800/1802 2000 BR BKN007 TEMPO 1802/1808 1200 BR BKN004 PROB40 1803/1806 0400 FZFG BKN002 BECMG 1809/1811 13010KT 9999 SCT020 BECMG 1820/1822 33010KT

Decode

Departure Runways

ID Width Length Bearing (true/mag) Surface Threshold Overrun Markings Lighting
09 148 ft / 45 m 8,443 ft / 2,573 m 96.95° / 91.08° ASPHALT 98 ft / 30 m 0 ft / 0 m PREC-APP CENTERLINE EDGE THRESHOLD REIL-OMNI
27 148 ft / 45 m 8,443 ft / 2,573 m 276.97° / 271.10° ASPHALT 112 ft / 34 m 0 ft / 0 m PREC-APP CENTERLINE EDGE THRESHOLD REIL-OMNI

LBBG

Details ICAO LBBG (BOJ)
Name Burgas
Region Bulgaria
Timezone Europe/Sofia (UTC+2.0)
Stats Elevation 134 ft / 41 m (AMSL)
Location 42.570100° 27.515300°
Runways 1
Magnetic Variation 5.727° E

METAR

LBBG 180430Z 26003KT 0400 R04/0550N FZFG VV002 M01/M01 Q1022 NOSIG

Decode

TAF

TAF LBBG 172300Z 1800/1824 VRB04KT 6000 SCT010 BECMG 1800/1802 2000 BR TEMPO 1802/1808 0400 FZFG BKN002 BECMG 1809/1811 5000 BR BECMG 1811/1813 13010KT 9999 SCT020 BECMG 1821/1823 33010KT

Decode

Destination Runways

ID Width Length Bearing (true/mag) Surface Threshold Overrun Markings Lighting
04 148 ft / 45 m 10,509 ft / 3,203 m 44.26° / 38.53° CONCRETE 0 ft / 0 m 0 ft / 0 m PREC-APP CENTERLINE EDGE THRESHOLD ALSF-I
22 148 ft / 45 m 10,509 ft / 3,203 m 224.28° / 218.55° CONCRETE 0 ft / 0 m 0 ft / 0 m PREC-APP CENTERLINE EDGE THRESHOLD ALSF-II TDZ

Approach Navaids

Runway Type Ident Frequency Range Bearing (true/mag) Slope Elevation
22 OM OM - - 224.28° / 218.56 ° - 135 ft / 41 m (AMSL)
22 GS IBG 110.30 MHz 10 nm / 19 km 224.27° / 218.54 ° 3.00° 134 ft / 41 m (AMSL)
22 LOC-ILS IBG 110.30 MHz 18 nm / 33 km 224.27° / 218.54 ° - 134 ft / 41 m (AMSL)
22 MM MM - - 224.28° / 218.56 ° - 135 ft / 41 m (AMSL)

Popular Alternatives